createdAt,value
2023-04-26T00:00:13.140Z,36.10
2023-04-26T00:01:13.190Z,36.10
2023-04-26T00:02:13.277Z,36.14
2023-04-26T00:03:13.561Z,36.06
2023-04-26T00:04:13.486Z,36.05
2023-04-26T00:05:13.458Z,36.10
2023-04-26T00:06:13.433Z,36.05
2023-04-26T00:07:13.521Z,36.06
2023-04-26T00:08:13.566Z,36.04
2023-04-26T00:09:13.588Z,36.06
2023-04-26T00:10:13.646Z,36.09
2023-04-26T00:11:13.684Z,36.06
2023-04-26T00:12:13.735Z,36.03
2023-04-26T00:13:13.800Z,36.09
2023-04-26T00:14:13.870Z,36.05
2023-04-26T00:15:13.906Z,36.09
2023-04-26T00:16:14.024Z,36.10
2023-04-26T00:17:14.015Z,36.06
2023-04-26T00:18:14.100Z,36.09
2023-04-26T00:19:14.123Z,36.09
2023-04-26T00:20:14.191Z,36.05
2023-04-26T00:21:14.234Z,36.09
2023-04-26T00:22:14.285Z,36.12
2023-04-26T00:23:14.350Z,36.09
2023-04-26T00:24:14.397Z,36.06
2023-04-26T00:25:14.446Z,36.06
2023-04-26T00:26:14.507Z,36.12
2023-04-26T00:27:14.557Z,36.10
2023-04-26T00:28:14.612Z,36.09
2023-04-26T00:29:14.667Z,36.10
2023-04-26T00:30:14.731Z,36.10
2023-04-26T00:31:14.804Z,36.07
2023-04-26T00:32:14.846Z,36.09
2023-04-26T00:33:14.892Z,36.07
2023-04-26T00:34:14.945Z,36.05
2023-04-26T00:35:15.013Z,36.07
2023-04-26T00:36:15.047Z,36.03
2023-04-26T00:37:15.098Z,36.01
2023-04-26T00:38:15.154Z,35.98
2023-04-26T00:39:15.209Z,36.02
2023-04-26T00:40:15.246Z,36.04
2023-04-26T00:41:15.298Z,36.05
2023-04-26T00:42:15.369Z,36.01
2023-04-26T00:43:15.401Z,36.01
2023-04-26T00:44:15.459Z,36.05
2023-04-26T00:45:15.515Z,36.05
2023-04-26T00:46:15.616Z,36.02
2023-04-26T00:47:15.591Z,36.00
2023-04-26T00:48:15.644Z,36.07
2023-04-26T00:49:15.697Z,36.01
2023-04-26T00:50:15.755Z,36.03
2023-04-26T00:51:15.790Z,36.02
2023-04-26T00:52:15.853Z,35.98
2023-04-26T00:53:15.889Z,35.97
2023-04-26T00:54:15.930Z,35.97
2023-04-26T00:55:15.994Z,35.99
2023-04-26T00:56:16.034Z,35.97
2023-04-26T00:57:16.079Z,35.97
2023-04-26T00:58:16.150Z,36.02
2023-04-26T00:59:16.188Z,35.99
2023-04-26T01:00:16.248Z,35.99
2023-04-26T01:01:16.329Z,35.99
2023-04-26T01:02:16.412Z,35.98
2023-04-26T01:03:16.509Z,35.99
2023-04-26T01:04:16.569Z,36.03
2023-04-26T01:05:16.502Z,36.01
2023-04-26T01:06:16.652Z,36.03
2023-04-26T01:07:16.610Z,35.98
2023-04-26T01:08:16.668Z,35.95
2023-04-26T01:09:16.716Z,35.95
2023-04-26T01:10:16.775Z,36.00
2023-04-26T01:11:16.827Z,35.96
2023-04-26T01:12:16.886Z,35.94
2023-04-26T01:13:16.944Z,35.97
2023-04-26T01:14:17.027Z,35.93
2023-04-26T01:15:17.084Z,35.94
2023-04-26T01:16:17.109Z,36.00
2023-04-26T01:17:17.238Z,35.93
2023-04-26T01:18:17.222Z,35.89
2023-04-26T01:19:17.279Z,35.94
2023-04-26T01:20:17.351Z,35.93
2023-04-26T01:21:17.400Z,35.94
2023-04-26T01:22:17.458Z,35.90
2023-04-26T01:23:17.523Z,35.94
2023-04-26T01:24:17.560Z,35.93
2023-04-26T01:25:17.626Z,35.90
2023-04-26T01:26:17.691Z,35.92
2023-04-26T01:27:17.753Z,35.90
2023-04-26T01:28:17.801Z,35.93
2023-04-26T01:29:17.894Z,35.95
2023-04-26T01:30:17.919Z,35.88
2023-04-26T01:31:17.990Z,35.93
2023-04-26T01:32:18.012Z,35.93
2023-04-26T01:33:18.066Z,35.87
2023-04-26T01:34:18.145Z,35.84
2023-04-26T01:35:18.172Z,35.84
2023-04-26T01:36:18.223Z,35.84
2023-04-26T01:37:18.272Z,35.86
2023-04-26T01:38:18.328Z,35.82
2023-04-26T01:39:18.378Z,35.82
2023-04-26T01:40:18.427Z,35.80
2023-04-26T01:41:18.468Z,35.74
2023-04-26T01:42:18.514Z,35.78
2023-04-26T01:43:18.563Z,35.73
2023-04-26T01:44:18.599Z,35.72
2023-04-26T01:45:18.665Z,35.76
2023-04-26T01:46:18.710Z,35.69
2023-04-26T01:47:18.737Z,35.69
2023-04-26T01:48:18.784Z,35.67
2023-04-26T01:49:18.834Z,35.67
2023-04-26T01:50:18.872Z,35.61
2023-04-26T01:51:18.918Z,35.65
2023-04-26T01:52:18.965Z,35.65
2023-04-26T01:53:18.985Z,35.58
2023-04-26T01:54:19.028Z,35.55
2023-04-26T01:55:19.067Z,35.54
2023-04-26T01:56:19.106Z,35.55
2023-04-26T01:57:19.143Z,35.51
2023-04-26T01:58:19.178Z,35.52
2023-04-26T01:59:19.227Z,35.49
2023-04-26T02:00:19.254Z,35.50
2023-04-26T02:01:19.317Z,35.46
2023-04-26T02:02:19.339Z,35.47
2023-04-26T02:03:19.481Z,35.45
2023-04-26T02:04:19.415Z,35.42
2023-04-26T02:05:19.547Z,35.36
2023-04-26T02:06:19.493Z,35.46
2023-04-26T02:07:19.529Z,35.42
2023-04-26T02:08:19.570Z,35.42
2023-04-26T02:09:19.622Z,35.45
2023-04-26T02:10:19.658Z,35.41
2023-04-26T02:11:19.720Z,35.44
2023-04-26T02:12:19.750Z,35.41
2023-04-26T02:13:19.792Z,35.40
2023-04-26T02:14:19.847Z,35.41
2023-04-26T02:15:19.899Z,35.41
2023-04-26T02:16:19.986Z,35.41
2023-04-26T02:17:19.973Z,35.38
2023-04-26T02:18:20.014Z,35.35
2023-04-26T02:19:20.083Z,35.37
2023-04-26T02:20:20.115Z,35.35
2023-04-26T02:21:20.149Z,35.40
2023-04-26T02:22:20.196Z,35.39
2023-04-26T02:23:20.266Z,35.33
2023-04-26T02:24:20.277Z,35.31
2023-04-26T02:25:20.328Z,35.36
2023-04-26T02:26:20.371Z,35.36
2023-04-26T02:27:20.433Z,35.38
2023-04-26T02:28:20.471Z,35.40
2023-04-26T02:29:26.901Z,35.39
2023-04-26T02:30:21.501Z,35.35
2023-04-26T02:31:22.900Z,35.32
2023-04-26T02:32:20.480Z,35.32
2023-04-26T02:33:20.465Z,35.40
2023-04-26T02:34:20.473Z,35.36
2023-04-26T02:35:20.447Z,35.36
2023-04-26T02:36:20.440Z,35.39
2023-04-26T02:37:20.415Z,35.41
2023-04-26T02:38:20.414Z,35.32
2023-04-26T02:39:20.402Z,35.32
2023-04-26T02:40:20.415Z,35.39
2023-04-26T02:41:20.394Z,35.31
2023-04-26T02:42:20.392Z,35.31
2023-04-26T02:43:20.378Z,35.42
2023-04-26T02:44:20.365Z,35.37
2023-04-26T02:45:20.354Z,35.37
2023-04-26T02:46:20.361Z,35.33
2023-04-26T02:47:20.331Z,35.35
2023-04-26T02:48:20.314Z,35.33
2023-04-26T02:49:20.306Z,35.31
2023-04-26T02:50:20.321Z,35.40
2023-04-26T02:51:20.278Z,35.35
2023-04-26T02:52:20.270Z,35.33
2023-04-26T02:53:20.249Z,35.33
2023-04-26T02:54:20.240Z,35.35
2023-04-26T02:55:20.233Z,35.35
2023-04-26T02:56:20.212Z,35.36
2023-04-26T02:57:20.200Z,35.35
2023-04-26T02:58:20.182Z,35.35
2023-04-26T02:59:20.171Z,35.36
2023-04-26T03:00:20.154Z,35.34
2023-04-26T03:01:20.159Z,35.32
2023-04-26T03:02:20.242Z,35.28
2023-04-26T03:03:20.402Z,35.30
2023-04-26T03:04:20.173Z,35.35
2023-04-26T03:05:20.111Z,35.32
2023-04-26T03:06:20.076Z,35.35
2023-04-26T03:07:20.072Z,35.30
2023-04-26T03:08:20.046Z,35.28
2023-04-26T03:09:20.038Z,35.32
2023-04-26T03:10:20.031Z,35.31
2023-04-26T03:11:20.033Z,35.30
2023-04-26T03:12:20.021Z,35.32
2023-04-26T03:13:20.041Z,35.32
2023-04-26T03:14:20.055Z,35.30
2023-04-26T03:15:19.983Z,35.31
2023-04-26T03:16:20.005Z,35.29
2023-04-26T03:17:19.981Z,35.31
2023-04-26T03:18:19.947Z,35.28
2023-04-26T03:19:19.947Z,35.32
2023-04-26T03:20:19.920Z,35.31
2023-04-26T03:21:19.955Z,35.32
2023-04-26T03:22:19.994Z,35.28
2023-04-26T03:23:20.044Z,35.28
2023-04-26T03:24:20.089Z,35.27
2023-04-26T03:25:20.135Z,35.30
2023-04-26T03:26:20.182Z,35.26
2023-04-26T03:27:20.281Z,35.28
2023-04-26T03:28:20.270Z,35.32
2023-04-26T03:29:20.323Z,35.29
2023-04-26T03:30:20.368Z,35.30
2023-04-26T03:31:20.464Z,35.30
2023-04-26T03:32:20.461Z,35.31
2023-04-26T03:33:20.510Z,35.25
2023-04-26T03:34:20.558Z,35.30
2023-04-26T03:35:20.602Z,35.28
2023-04-26T03:36:20.656Z,35.28
2023-04-26T03:37:20.684Z,35.28
2023-04-26T03:38:20.721Z,35.24
2023-04-26T03:39:20.777Z,35.28
2023-04-26T03:40:20.811Z,35.28
2023-04-26T03:41:20.865Z,35.30
2023-04-26T03:42:20.903Z,35.24
2023-04-26T03:43:20.940Z,35.29
2023-04-26T03:44:20.982Z,35.27
2023-04-26T03:45:21.024Z,35.25
2023-04-26T03:46:21.081Z,35.27
2023-04-26T03:47:21.117Z,35.27
2023-04-26T03:48:21.160Z,35.27
2023-04-26T03:49:21.198Z,35.23
2023-04-26T03:50:21.254Z,35.32
2023-04-26T03:51:21.280Z,35.29
2023-04-26T03:52:21.328Z,35.27
2023-04-26T03:53:21.374Z,35.29
2023-04-26T03:54:21.426Z,35.27
2023-04-26T03:55:21.474Z,35.25
2023-04-26T03:56:21.501Z,35.28
2023-04-26T03:57:21.563Z,35.25
2023-04-26T03:58:21.612Z,35.28
2023-04-26T03:59:21.653Z,35.24
2023-04-26T04:00:21.710Z,35.27
2023-04-26T04:01:21.769Z,35.25
2023-04-26T04:02:21.901Z,35.27
2023-04-26T04:03:22.031Z,35.27
2023-04-26T04:04:22.042Z,35.29
2023-04-26T04:05:22.013Z,35.32
2023-04-26T04:06:21.973Z,35.24
2023-04-26T04:07:22.011Z,35.27
2023-04-26T04:08:22.054Z,35.23
2023-04-26T04:09:22.119Z,35.24
2023-04-26T04:10:22.152Z,35.27
2023-04-26T04:11:22.219Z,35.25
2023-04-26T04:12:22.238Z,35.28
2023-04-26T04:13:22.311Z,35.20
2023-04-26T04:14:22.338Z,35.27
2023-04-26T04:15:22.375Z,35.28
2023-04-26T04:16:22.536Z,35.21
2023-04-26T04:17:22.485Z,35.28
2023-04-26T04:18:22.506Z,35.24
2023-04-26T04:19:22.558Z,35.24
2023-04-26T04:20:22.579Z,35.22
2023-04-26T04:21:22.620Z,35.27
2023-04-26T04:22:22.654Z,35.29
2023-04-26T04:23:22.687Z,35.25
2023-04-26T04:24:22.731Z,35.20
2023-04-26T04:25:22.782Z,35.27
2023-04-26T04:26:22.806Z,35.25
2023-04-26T04:27:22.845Z,35.25
2023-04-26T04:28:22.886Z,35.25
2023-04-26T04:29:22.939Z,35.24
2023-04-26T04:30:23.001Z,35.27
2023-04-26T04:31:23.088Z,35.24
2023-04-26T04:32:23.086Z,35.29
2023-04-26T04:33:23.112Z,35.27
2023-04-26T04:34:23.141Z,35.29
2023-04-26T04:35:23.189Z,35.30
2023-04-26T04:36:23.237Z,35.28
2023-04-26T04:37:23.282Z,35.28
2023-04-26T04:38:23.380Z,35.29
2023-04-26T04:39:23.366Z,35.28
2023-04-26T04:40:23.415Z,35.27
2023-04-26T04:41:23.514Z,35.27
2023-04-26T04:42:23.513Z,35.24
2023-04-26T04:43:23.549Z,35.24
2023-04-26T04:44:23.597Z,35.23
2023-04-26T04:45:23.639Z,35.20
2023-04-26T04:46:23.709Z,35.20
2023-04-26T04:47:23.794Z,35.19
2023-04-26T04:48:23.779Z,35.18
2023-04-26T04:49:23.816Z,35.21
2023-04-26T04:50:23.871Z,35.12
2023-04-26T04:51:23.904Z,35.14
2023-04-26T04:52:23.947Z,35.10
2023-04-26T04:53:23.988Z,35.10
2023-04-26T04:54:24.039Z,35.06
2023-04-26T04:55:24.075Z,34.96
2023-04-26T04:56:24.137Z,35.03
2023-04-26T04:57:24.164Z,35.00
2023-04-26T04:58:24.195Z,35.02
2023-04-26T04:59:24.237Z,35.00
2023-04-26T05:00:24.278Z,34.98
2023-04-26T05:01:24.349Z,35.02
2023-04-26T05:02:24.474Z,34.95
2023-04-26T05:03:24.594Z,34.96
2023-04-26T05:04:24.676Z,34.98
2023-04-26T05:05:24.469Z,34.99
2023-04-26T05:06:24.502Z,34.96
2023-04-26T05:07:24.776Z,34.97
2023-04-26T05:08:24.584Z,34.95
2023-04-26T05:09:24.618Z,34.94
2023-04-26T05:10:24.648Z,34.93
2023-04-26T05:11:24.679Z,34.91
2023-04-26T05:12:24.703Z,34.91
2023-04-26T05:13:24.727Z,34.91
2023-04-26T05:14:24.757Z,34.93
2023-04-26T05:15:24.797Z,34.93
2023-04-26T05:16:24.893Z,34.86
2023-04-26T05:17:24.884Z,34.91
2023-04-26T05:18:24.890Z,34.93
2023-04-26T05:19:24.915Z,34.95
2023-04-26T05:20:24.987Z,35.07
2023-04-26T05:21:24.973Z,35.38
2023-04-26T05:22:25.007Z,35.14
2023-04-26T05:23:25.040Z,35.43
2023-04-26T05:24:25.074Z,35.48
2023-04-26T05:25:25.078Z,35.55
2023-04-26T05:26:25.101Z,35.50
2023-04-26T05:27:25.129Z,35.43
2023-04-26T05:28:25.132Z,35.36
2023-04-26T05:29:25.153Z,35.31
2023-04-26T05:30:25.167Z,35.30
2023-04-26T05:31:25.223Z,35.26
2023-04-26T05:32:25.186Z,35.24
2023-04-26T05:33:25.270Z,35.20
2023-04-26T05:34:25.216Z,35.24
2023-04-26T05:35:25.235Z,35.23
2023-04-26T05:36:26.397Z,35.20
2023-04-26T05:37:25.257Z,35.23
2023-04-26T05:38:25.279Z,35.15
2023-04-26T05:39:25.297Z,35.17
2023-04-26T05:40:25.315Z,35.14
2023-04-26T05:41:25.318Z,35.17
2023-04-26T05:42:25.331Z,35.19
2023-04-26T05:43:25.353Z,35.15
2023-04-26T05:44:25.367Z,35.15
2023-04-26T05:45:25.415Z,35.22
2023-04-26T05:46:25.401Z,35.16
2023-04-26T05:47:25.385Z,35.18
2023-04-26T05:48:25.400Z,35.20
2023-04-26T05:49:25.403Z,35.16
2023-04-26T05:50:25.409Z,35.17
2023-04-26T05:51:25.424Z,35.23
2023-04-26T05:52:25.433Z,35.23
2023-04-26T05:53:25.439Z,35.15
2023-04-26T05:54:25.443Z,35.08
2023-04-26T05:55:25.479Z,35.02
2023-04-26T05:56:25.450Z,35.01
2023-04-26T05:57:25.477Z,34.99
2023-04-26T05:58:25.447Z,34.94
2023-04-26T05:59:25.439Z,34.93
2023-04-26T06:00:25.434Z,34.91
2023-04-26T06:01:25.428Z,34.92
2023-04-26T06:02:25.632Z,34.85
2023-04-26T06:03:25.513Z,34.88
2023-04-26T06:04:25.526Z,34.87
2023-04-26T06:05:25.514Z,34.82
2023-04-26T06:06:25.389Z,34.81
2023-04-26T06:07:25.377Z,34.80
2023-04-26T06:08:25.394Z,34.74
2023-04-26T06:09:25.424Z,34.72
2023-04-26T06:10:25.445Z,34.78
2023-04-26T06:11:25.371Z,34.73
2023-04-26T06:12:25.379Z,34.73
2023-04-26T06:13:25.364Z,34.68
2023-04-26T06:14:30.473Z,34.67
2023-04-26T06:15:26.342Z,34.61
2023-04-26T06:16:25.335Z,34.54
2023-04-26T06:17:25.401Z,34.52
2023-04-26T06:18:25.276Z,34.46
2023-04-26T06:19:25.282Z,34.50
2023-04-26T06:20:25.222Z,34.50
2023-04-26T06:21:25.208Z,34.45
2023-04-26T06:22:25.190Z,34.48
2023-04-26T06:23:25.196Z,34.39
2023-04-26T06:24:25.231Z,32.71
2023-04-26T06:25:25.258Z,30.52
2023-04-26T06:26:25.276Z,28.70
2023-04-26T06:27:25.269Z,28.76
2023-04-26T06:28:25.297Z,29.94
2023-04-26T06:29:25.395Z,30.28
2023-04-26T06:30:25.421Z,30.36
2023-04-26T06:31:25.517Z,30.29
2023-04-26T06:32:25.591Z,29.65
2023-04-26T06:33:25.592Z,29.55
2023-04-26T06:34:25.620Z,29.62
2023-04-26T06:35:25.658Z,28.86
2023-04-26T06:36:25.665Z,28.57
2023-04-26T06:37:25.674Z,28.84
2023-04-26T06:38:25.691Z,27.94
2023-04-26T06:39:25.726Z,27.96
2023-04-26T06:40:25.741Z,28.15
2023-04-26T06:41:25.746Z,28.29
2023-04-26T06:42:25.806Z,28.56
2023-04-26T06:43:25.774Z,28.36
2023-04-26T06:44:25.812Z,28.27
2023-04-26T06:45:25.813Z,28.40
2023-04-26T06:46:25.867Z,28.62
2023-04-26T06:47:25.905Z,28.60
2023-04-26T06:48:25.856Z,28.62
2023-04-26T06:49:25.862Z,28.49
2023-04-26T06:50:26.008Z,28.28
2023-04-26T06:51:25.904Z,28.33
2023-04-26T06:52:25.968Z,28.29
2023-04-26T06:53:26.018Z,28.25
2023-04-26T06:54:26.049Z,27.96
2023-04-26T06:55:26.094Z,27.63
2023-04-26T06:56:26.154Z,27.77
2023-04-26T06:57:26.230Z,27.41
2023-04-26T06:58:26.515Z,27.08
2023-04-26T06:59:26.269Z,27.33
2023-04-26T07:00:26.306Z,27.42
2023-04-26T07:01:26.368Z,28.04
2023-04-26T07:02:26.557Z,28.28
2023-04-26T07:03:26.609Z,28.38
2023-04-26T07:04:26.648Z,28.59
2023-04-26T07:05:26.581Z,28.64
2023-04-26T07:06:27.370Z,28.20
2023-04-26T07:07:26.654Z,28.31
2023-04-26T07:08:26.693Z,28.17
2023-04-26T07:09:26.715Z,28.34
2023-04-26T07:10:26.785Z,28.46
2023-04-26T07:11:26.790Z,28.14
2023-04-26T07:12:26.796Z,28.12
2023-04-26T07:13:26.950Z,27.72
2023-04-26T07:14:26.875Z,28.03
2023-04-26T07:15:26.956Z,28.01
2023-04-26T07:16:27.055Z,27.95
2023-04-26T07:17:26.908Z,28.52
2023-04-26T07:18:26.923Z,29.01
2023-04-26T07:19:26.907Z,29.18
2023-04-26T07:20:26.913Z,29.20
2023-04-26T07:21:26.980Z,29.45
2023-04-26T07:22:26.914Z,29.80
2023-04-26T07:23:26.891Z,29.89
2023-04-26T07:24:26.870Z,30.33
2023-04-26T07:25:26.870Z,30.85
2023-04-26T07:26:26.918Z,31.79
2023-04-26T07:27:26.806Z,31.65
2023-04-26T07:28:26.768Z,31.91
2023-04-26T07:29:26.742Z,32.18
2023-04-26T07:30:26.810Z,32.27
2023-04-26T07:31:26.672Z,32.43
2023-04-26T07:32:26.689Z,32.67
2023-04-26T07:33:26.671Z,32.79
2023-04-26T07:34:26.579Z,33.07
2023-04-26T07:35:26.548Z,33.10
2023-04-26T07:36:26.514Z,33.30
2023-04-26T07:37:26.466Z,33.40
2023-04-26T07:38:26.437Z,33.49
2023-04-26T07:39:26.468Z,33.56
2023-04-26T07:40:26.471Z,33.67
2023-04-26T07:41:26.482Z,33.91
2023-04-26T07:42:26.510Z,33.94
2023-04-26T07:43:26.547Z,34.09
2023-04-26T07:44:26.561Z,34.19
2023-04-26T07:45:26.588Z,34.34
2023-04-26T07:46:26.644Z,34.47
2023-04-26T07:47:26.667Z,34.51
2023-04-26T07:48:26.634Z,34.56
2023-04-26T07:49:26.660Z,34.83
2023-04-26T07:50:26.672Z,34.91
2023-04-26T07:51:26.688Z,34.90
2023-04-26T07:52:26.692Z,35.25
2023-04-26T07:53:26.660Z,35.24
2023-04-26T07:54:26.641Z,35.33
2023-04-26T07:55:26.592Z,35.55
2023-04-26T07:56:26.555Z,35.54
2023-04-26T07:57:26.506Z,35.77
2023-04-26T07:58:26.479Z,35.81
2023-04-26T07:59:26.427Z,35.94
2023-04-26T08:00:26.393Z,36.01
2023-04-26T08:01:26.349Z,36.10
2023-04-26T08:02:41.056Z,36.19
2023-04-26T08:03:27.570Z,36.37
2023-04-26T08:04:26.484Z,36.27
2023-04-26T08:05:26.473Z,36.40
2023-04-26T08:06:26.187Z,36.71
2023-04-26T08:07:26.118Z,36.68
2023-04-26T08:08:26.087Z,36.91
2023-04-26T08:09:26.047Z,36.95
2023-04-26T08:10:26.014Z,36.93
2023-04-26T08:11:26.000Z,37.14
2023-04-26T08:12:25.930Z,37.21
2023-04-26T08:13:29.155Z,37.19
2023-04-26T08:14:25.851Z,37.19
2023-04-26T08:15:25.800Z,37.14
2023-04-26T08:16:25.815Z,37.01
2023-04-26T08:17:25.820Z,36.95
2023-04-26T08:18:25.698Z,36.43
2023-04-26T08:19:25.656Z,36.07
2023-04-26T08:20:25.620Z,32.92
2023-04-26T08:21:25.583Z,32.03
2023-04-26T08:22:25.542Z,30.94
2023-04-26T08:23:25.522Z,30.64
2023-04-26T08:24:26.392Z,29.60
2023-04-26T08:25:26.300Z,29.89
2023-04-26T08:26:25.452Z,28.47
2023-04-26T08:27:25.422Z,27.78
2023-04-26T08:28:25.397Z,27.38
2023-04-26T08:29:25.394Z,26.54
2023-04-26T08:30:25.375Z,25.95
2023-04-26T08:31:25.452Z,25.74
2023-04-26T08:32:25.374Z,26.40
2023-04-26T08:33:25.302Z,26.93
2023-04-26T08:34:25.281Z,27.38
2023-04-26T08:35:25.258Z,26.88
2023-04-26T08:36:25.229Z,26.87
2023-04-26T08:37:25.348Z,26.80
2023-04-26T08:38:25.189Z,27.11
2023-04-26T08:39:25.161Z,27.07
2023-04-26T08:40:25.136Z,27.06
2023-04-26T08:41:25.102Z,26.36
2023-04-26T08:42:25.084Z,26.77
2023-04-26T08:43:25.061Z,26.93
2023-04-26T08:44:25.056Z,28.14
2023-04-26T08:45:25.051Z,27.40
2023-04-26T08:46:25.003Z,26.81
2023-04-26T08:47:24.965Z,26.69
2023-04-26T08:48:24.926Z,26.17
2023-04-26T08:49:25.406Z,26.92
2023-04-26T08:50:24.961Z,26.27
2023-04-26T08:51:24.824Z,25.91
2023-04-26T08:52:24.785Z,26.15
2023-04-26T08:53:24.756Z,26.23
2023-04-26T08:54:24.772Z,26.28
2023-04-26T08:55:24.770Z,26.14
2023-04-26T08:56:24.728Z,25.54
2023-04-26T08:57:24.778Z,25.37
2023-04-26T08:58:24.829Z,25.36
2023-04-26T08:59:24.826Z,25.46
2023-04-26T09:00:24.876Z,25.44
2023-04-26T09:01:24.957Z,25.49
2023-04-26T09:02:25.245Z,25.46
2023-04-26T09:03:25.093Z,25.37
2023-04-26T09:04:25.165Z,25.31
2023-04-26T09:05:25.072Z,25.38
2023-04-26T09:06:25.090Z,25.09
2023-04-26T09:07:25.122Z,25.11
2023-04-26T09:08:26.096Z,25.64
2023-04-26T09:09:25.496Z,25.00
2023-04-26T09:10:25.039Z,25.17
2023-04-26T09:11:25.004Z,25.26
2023-04-26T09:12:24.979Z,24.99
2023-04-26T09:13:24.928Z,25.16
2023-04-26T09:14:24.904Z,25.26
2023-04-26T09:15:24.879Z,26.04
2023-04-26T09:16:24.959Z,27.49
2023-04-26T09:17:24.968Z,27.29
2023-04-26T09:18:24.965Z,27.40
2023-04-26T09:19:24.992Z,27.26
2023-04-26T09:20:25.014Z,27.29
2023-04-26T09:21:25.038Z,27.27
2023-04-26T09:22:25.089Z,27.31
2023-04-26T09:23:25.112Z,27.35
2023-04-26T09:24:25.171Z,27.39
2023-04-26T09:25:25.900Z,27.42
2023-04-26T09:26:25.193Z,27.43
2023-04-26T09:27:25.830Z,27.44
2023-04-26T09:28:25.302Z,27.47
2023-04-26T09:29:25.289Z,27.51
2023-04-26T09:30:25.318Z,27.58
2023-04-26T09:31:25.381Z,27.62
2023-04-26T09:32:25.382Z,27.69
2023-04-26T09:33:25.506Z,27.70
2023-04-26T09:34:25.463Z,27.79
2023-04-26T09:35:25.452Z,27.76
2023-04-26T09:36:25.479Z,27.82
2023-04-26T09:37:25.506Z,27.90
2023-04-26T09:38:25.598Z,27.96
2023-04-26T09:39:25.538Z,27.97
2023-04-26T09:40:25.568Z,28.05
2023-04-26T09:41:26.330Z,27.99
2023-04-26T09:42:25.553Z,28.07
2023-04-26T09:43:25.576Z,28.09
2023-04-26T09:44:25.615Z,28.06
2023-04-26T09:45:25.598Z,28.15
2023-04-26T09:46:25.725Z,28.14
2023-04-26T09:47:25.760Z,28.14
2023-04-26T09:48:25.754Z,28.18
2023-04-26T09:49:25.748Z,28.25
2023-04-26T09:50:25.761Z,28.31
2023-04-26T09:51:25.762Z,28.27
2023-04-26T09:52:25.798Z,28.29
2023-04-26T09:53:25.841Z,28.32
2023-04-26T09:54:25.843Z,28.36
2023-04-26T09:55:34.774Z,28.37
2023-04-26T09:56:26.814Z,28.39
2023-04-26T09:57:26.770Z,28.40
2023-04-26T09:58:25.745Z,28.43
2023-04-26T09:59:25.752Z,28.41
2023-04-26T10:00:25.715Z,28.48
2023-04-26T10:01:25.829Z,28.50
2023-04-26T10:02:25.737Z,28.51
2023-04-26T10:03:25.689Z,28.58
2023-04-26T10:04:25.653Z,28.56
2023-04-26T10:05:25.552Z,28.58
2023-04-26T10:06:25.522Z,28.55
2023-04-26T10:07:25.496Z,28.59
2023-04-26T10:08:25.466Z,28.61
2023-04-26T10:09:25.436Z,28.67
2023-04-26T10:10:25.395Z,28.63
2023-04-26T10:11:25.373Z,28.70
2023-04-26T10:12:25.333Z,28.66
2023-04-26T10:13:25.310Z,28.66
2023-04-26T10:14:25.266Z,28.66
2023-04-26T10:15:25.233Z,28.76
2023-04-26T10:16:25.208Z,28.70
2023-04-26T10:17:25.217Z,28.73
2023-04-26T10:18:25.150Z,28.73
2023-04-26T10:19:25.098Z,28.83
2023-04-26T10:20:25.061Z,28.80
2023-04-26T10:21:25.105Z,28.83
2023-04-26T10:22:25.011Z,28.78
2023-04-26T10:23:24.974Z,28.78
2023-04-26T10:24:24.949Z,28.77
2023-04-26T10:25:24.932Z,28.80
2023-04-26T10:26:24.908Z,28.87
2023-04-26T10:27:24.883Z,28.84
2023-04-26T10:28:24.858Z,28.87
2023-04-26T10:29:24.828Z,28.81
2023-04-26T10:30:24.803Z,28.94
2023-04-26T10:31:24.817Z,28.85
2023-04-26T10:32:24.751Z,28.94
2023-04-26T10:33:24.804Z,28.91
2023-04-26T10:34:24.700Z,28.92
2023-04-26T10:35:24.702Z,28.96
2023-04-26T10:36:24.685Z,28.92
2023-04-26T10:37:24.640Z,28.96
2023-04-26T10:38:24.628Z,28.96
2023-04-26T10:39:24.663Z,28.94
2023-04-26T10:40:24.740Z,28.96
2023-04-26T10:41:24.753Z,28.99
2023-04-26T10:42:25.874Z,29.00
2023-04-26T10:43:26.121Z,29.02
2023-04-26T10:44:24.811Z,29.00
2023-04-26T10:45:24.847Z,29.00
2023-04-26T10:46:24.882Z,29.01
2023-04-26T10:47:24.929Z,29.00
2023-04-26T10:48:24.898Z,29.05
2023-04-26T10:49:26.648Z,29.05
2023-04-26T10:50:24.911Z,29.03
2023-04-26T10:51:24.944Z,29.06
2023-04-26T10:52:24.964Z,29.05
2023-04-26T10:53:24.968Z,29.09
2023-04-26T10:54:24.976Z,29.00
2023-04-26T10:55:25.540Z,29.13
2023-04-26T10:56:24.968Z,29.07
2023-04-26T10:57:24.975Z,29.07
2023-04-26T10:58:25.019Z,29.07
2023-04-26T10:59:39.710Z,29.07
2023-04-26T11:00:26.784Z,29.13
2023-04-26T11:01:25.073Z,29.10
2023-04-26T11:02:25.150Z,29.09
2023-04-26T11:03:25.362Z,29.16
2023-04-26T11:04:25.268Z,29.15
2023-04-26T11:05:25.522Z,29.16
2023-04-26T11:06:25.192Z,29.17
2023-04-26T11:07:25.217Z,29.16
2023-04-26T11:08:25.208Z,29.17
2023-04-26T11:09:25.179Z,29.17
2023-04-26T11:10:25.201Z,29.20
2023-04-26T11:11:25.272Z,29.17
2023-04-26T11:12:25.251Z,29.20
2023-04-26T11:13:25.267Z,29.20
2023-04-26T11:14:25.337Z,29.20
2023-04-26T11:15:25.378Z,29.20
2023-04-26T11:16:25.453Z,29.21
2023-04-26T11:17:25.529Z,29.24
2023-04-26T11:18:25.515Z,29.21
2023-04-26T11:19:25.504Z,29.30
2023-04-26T11:20:25.525Z,29.27
2023-04-26T11:21:25.556Z,29.21
2023-04-26T11:22:25.611Z,29.28
2023-04-26T11:23:25.633Z,29.27
2023-04-26T11:24:25.644Z,29.33
2023-04-26T11:25:25.671Z,29.27
2023-04-26T11:26:25.860Z,29.30
2023-04-26T11:27:25.752Z,29.31
2023-04-26T11:28:25.777Z,29.31
2023-04-26T11:29:25.812Z,29.27
2023-04-26T11:30:25.890Z,29.30
2023-04-26T11:31:25.919Z,29.33
2023-04-26T11:32:25.903Z,29.31
2023-04-26T11:33:25.887Z,29.30
2023-04-26T11:34:25.895Z,29.31
2023-04-26T11:35:25.956Z,29.35
2023-04-26T11:36:25.966Z,29.35
2023-04-26T11:37:25.963Z,29.37
2023-04-26T11:38:25.970Z,29.38
2023-04-26T11:39:25.991Z,29.35
2023-04-26T11:40:26.013Z,29.38
2023-04-26T11:41:26.035Z,29.38
2023-04-26T11:42:26.070Z,29.36
2023-04-26T11:43:26.111Z,29.35
2023-04-26T11:44:26.093Z,29.33
2023-04-26T11:45:26.145Z,29.37
2023-04-26T11:46:26.270Z,29.35
2023-04-26T11:47:26.241Z,29.34
2023-04-26T11:48:26.294Z,29.37
2023-04-26T11:49:26.297Z,29.41
2023-04-26T11:50:26.339Z,29.40
2023-04-26T11:51:26.370Z,29.40
2023-04-26T11:52:26.430Z,29.40
2023-04-26T11:53:26.428Z,29.38
2023-04-26T11:54:26.465Z,29.37
2023-04-26T11:55:26.470Z,29.41
2023-04-26T11:56:26.492Z,29.41
2023-04-26T11:57:26.527Z,29.41
2023-04-26T11:58:26.600Z,29.40
2023-04-26T11:59:26.614Z,29.41
2023-04-26T12:00:26.644Z,29.43
2023-04-26T12:01:26.669Z,29.44
2023-04-26T12:02:26.803Z,29.44
2023-04-26T12:03:26.987Z,29.47
2023-04-26T12:04:29.074Z,29.48
2023-04-26T12:05:26.849Z,29.47
2023-04-26T12:06:26.704Z,29.49
2023-04-26T12:07:26.695Z,29.48
2023-04-26T12:08:26.658Z,29.54
2023-04-26T12:09:26.623Z,29.53
2023-04-26T12:10:26.609Z,29.49
2023-04-26T12:11:26.591Z,29.52
2023-04-26T12:12:26.565Z,29.56
2023-04-26T12:13:26.555Z,29.54
2023-04-26T12:14:26.538Z,29.55
2023-04-26T12:15:26.513Z,29.56
2023-04-26T12:16:27.259Z,29.58
2023-04-26T12:17:26.601Z,29.57
2023-04-26T12:18:26.686Z,29.56
2023-04-26T12:19:26.417Z,29.62
2023-04-26T12:20:26.395Z,29.59
2023-04-26T12:21:28.899Z,29.62
2023-04-26T12:22:26.340Z,29.56
2023-04-26T12:23:26.313Z,29.59
2023-04-26T12:24:26.293Z,29.62
2023-04-26T12:25:26.271Z,29.59
2023-04-26T12:26:26.256Z,29.61
2023-04-26T12:27:26.221Z,29.60
2023-04-26T12:28:26.194Z,29.55
2023-04-26T12:29:26.168Z,29.58
2023-04-26T12:30:26.133Z,29.56
2023-04-26T12:31:26.168Z,29.58
2023-04-26T12:32:26.096Z,29.62
2023-04-26T12:33:26.095Z,29.59
2023-04-26T12:34:26.139Z,29.60
2023-04-26T12:35:26.027Z,29.61
2023-04-26T12:36:26.002Z,29.58
2023-04-26T12:37:25.983Z,29.59
2023-04-26T12:38:25.956Z,29.58
2023-04-26T12:39:25.931Z,29.61
2023-04-26T12:40:25.903Z,29.56
2023-04-26T12:41:25.900Z,29.58
2023-04-26T12:42:25.860Z,29.59
2023-04-26T12:43:25.838Z,29.61
2023-04-26T12:44:25.814Z,29.62
2023-04-26T12:45:25.800Z,29.62
2023-04-26T12:46:25.812Z,29.63
2023-04-26T12:47:25.764Z,29.62
2023-04-26T12:48:25.714Z,29.58
2023-04-26T12:49:25.742Z,29.62
2023-04-26T12:50:25.773Z,29.63
2023-04-26T12:51:25.991Z,29.62
2023-04-26T12:52:25.812Z,29.60